sensor_id;sensor_type;location;lat;lon;timestamp;temperature;humidity
66827;DHT22;53727;45.242;19.796;2022-10-22T05:17:14;409.80;2355.20
66827;DHT22;53727;45.242;19.796;2022-10-22T07:56:10;563.50;2073.60
66827;DHT22;53727;45.242;19.796;2022-10-22T07:58:36;563.30;2073.60
66827;DHT22;53727;45.242;19.796;2022-10-22T08:01:02;563.50;2073.60
66827;DHT22;53727;45.242;19.796;2022-10-22T10:56:45;691.80;1536.00
66827;DHT22;53727;45.242;19.796;2022-10-22T11:58:38;691.90;1587.20
66827;DHT22;53727;45.242;19.796;2022-10-22T12:09:05;665.80;1484.80
66827;DHT22;53727;45.242;19.796;2022-10-22T12:11:40;665.90;1536.00
66827;DHT22;53727;45.242;19.796;2022-10-22T12:14:24;666.10;1561.60
66827;DHT22;53727;45.242;19.796;2022-10-22T12:16:58;666.10;1484.80
66827;DHT22;53727;45.242;19.796;2022-10-22T12:19:41;666.00;1433.60
66827;DHT22;53727;45.242;19.796;2022-10-22T12:22:14;666.10;1433.60
66827;DHT22;53727;45.242;19.796;2022-10-22T12:24:47;666.30;1433.60
66827;DHT22;53727;45.242;19.796;2022-10-22T12:27:20;666.50;1382.40
66827;DHT22;53727;45.242;19.796;2022-10-22T12:29:46;691.30;1356.80
66827;DHT22;53727;45.242;19.796;2022-10-22T12:32:15;691.40;1382.40
66827;DHT22;53727;45.242;19.796;2022-10-22T12:34:46;691.40;1408.00
66827;DHT22;53727;45.242;19.796;2022-10-22T12:37:13;691.40;1356.80
66827;DHT22;53727;45.242;19.796;2022-10-22T12:39:40;691.40;1331.20
66827;DHT22;53727;45.242;19.796;2022-10-22T12:42:11;691.50;1331.20
66827;DHT22;53727;45.242;19.796;2022-10-22T12:44:37;691.50;1331.20
66827;DHT22;53727;45.242;19.796;2022-10-22T12:47:05;691.60;1433.60
66827;DHT22;53727;45.242;19.796;2022-10-22T12:49:35;691.70;1356.80
66827;DHT22;53727;45.242;19.796;2022-10-22T12:52:05;691.50;1280.00
66827;DHT22;53727;45.242;19.796;2022-10-22T12:54:33;691.40;1433.60
66827;DHT22;53727;45.242;19.796;2022-10-22T12:57:00;691.50;1356.80
66827;DHT22;53727;45.242;19.796;2022-10-22T12:59:29;691.50;1356.80
66827;DHT22;53727;45.242;19.796;2022-10-22T13:01:57;691.60;1356.80
66827;DHT22;53727;45.242;19.796;2022-10-22T13:09:43;691.60;1536.00
66827;DHT22;53727;45.242;19.796;2022-10-22T13:12:10;691.60;1433.60
66827;DHT22;53727;45.242;19.796;2022-10-22T13:14:43;691.80;1536.00
66827;DHT22;53727;45.242;19.796;2022-10-22T13:17:35;691.60;1356.80
66827;DHT22;53727;45.242;19.796;2022-10-22T13:20:03;691.80;1305.60
66827;DHT22;53727;45.242;19.796;2022-10-22T13:22:38;691.80;1331.20
66827;DHT22;53727;45.242;19.796;2022-10-22T13:27:42;691.90;1305.60
66827;DHT22;53727;45.242;19.796;2022-10-22T13:30:21;691.80;1331.20
66827;DHT22;53727;45.242;19.796;2022-10-22T13:33:25;691.80;1280.00
66827;DHT22;53727;45.242;19.796;2022-10-22T13:35:54;691.70;1254.40
66827;DHT22;53727;45.242;19.796;2022-10-22T13:38:23;691.90;1254.40
66827;DHT22;53727;45.242;19.796;2022-10-22T13:40:49;691.80;1228.80
66827;DHT22;53727;45.242;19.796;2022-10-22T13:43:16;691.50;1228.80
66827;DHT22;53727;45.242;19.796;2022-10-22T13:45:43;691.50;1254.40
66827;DHT22;53727;45.242;19.796;2022-10-22T13:48:17;691.40;1152.00
66827;DHT22;53727;45.242;19.796;2022-10-22T13:50:46;691.80;1203.20
66827;DHT22;53727;45.242;19.796;2022-10-22T13:53:18;691.80;1152.00
66827;DHT22;53727;45.242;19.796;2022-10-22T13:55:45;691.60;1177.60
66827;DHT22;53727;45.242;19.796;2022-10-22T13:58:13;691.50;1126.40
66827;DHT22;53727;45.242;19.796;2022-10-22T14:00:45;691.40;1177.60
66827;DHT22;53727;45.242;19.796;2022-10-22T14:03:14;691.60;1177.60
66827;DHT22;53727;45.242;19.796;2022-10-22T14:05:41;691.90;1331.20
66827;DHT22;53727;45.242;19.796;2022-10-22T14:08:18;691.70;1126.40
66827;DHT22;53727;45.242;19.796;2022-10-22T14:10:45;691.90;1126.40
66827;DHT22;53727;45.242;19.796;2022-10-22T14:13:15;716.80;1126.40
66827;DHT22;53727;45.242;19.796;2022-10-22T14:15:42;691.80;1126.40
66827;DHT22;53727;45.242;19.796;2022-10-22T14:18:14;691.60;1126.40
66827;DHT22;53727;45.242;19.796;2022-10-22T14:20:41;691.50;1177.60
66827;DHT22;53727;45.242;19.796;2022-10-22T14:23:14;691.30;1024.00
66827;DHT22;53727;45.242;19.796;2022-10-22T14:25:41;666.50;1126.40
66827;DHT22;53727;45.242;19.796;2022-10-22T14:28:09;666.30;1152.00
66827;DHT22;53727;45.242;19.796;2022-10-22T14:30:35;666.20;1152.00
66827;DHT22;53727;45.242;19.796;2022-10-22T14:33:00;666.10;1177.60
66827;DHT22;53727;45.242;19.796;2022-10-22T14:35:26;666.00;1177.60
66827;DHT22;53727;45.242;19.796;2022-10-22T14:37:52;665.90;1177.60
66827;DHT22;53727;45.242;19.796;2022-10-22T14:40:19;665.80;1177.60
66827;DHT22;53727;45.242;19.796;2022-10-22T14:42:47;665.60;1203.20
66827;DHT22;53727;45.242;19.796;2022-10-22T14:45:20;640.90;1177.60
66827;DHT22;53727;45.242;19.796;2022-10-22T14:47:47;640.90;1305.60
66827;DHT22;53727;45.242;19.796;2022-10-22T14:50:12;640.80;1228.80
66827;DHT22;53727;45.242;19.796;2022-10-22T14:52:40;640.70;1228.80
66827;DHT22;53727;45.242;19.796;2022-10-22T14:55:11;640.60;1177.60
66827;DHT22;53727;45.242;19.796;2022-10-22T14:57:38;640.60;1228.80
66827;DHT22;53727;45.242;19.796;2022-10-22T15:00:06;640.60;1228.80
66827;DHT22;53727;45.242;19.796;2022-10-22T15:02:33;640.40;1280.00
66827;DHT22;53727;45.242;19.796;2022-10-22T15:04:58;640.40;1408.00
66827;DHT22;53727;45.242;19.796;2022-10-22T15:07:24;640.30;1331.20
66827;DHT22;53727;45.242;19.796;2022-10-22T15:09:52;640.30;1331.20
66827;DHT22;53727;45.242;19.796;2022-10-22T15:12:18;640.20;1408.00
66827;DHT22;53727;45.242;19.796;2022-10-22T15:14:46;640.20;1433.60
66827;DHT22;53727;45.242;19.796;2022-10-22T15:17:12;640.20;1408.00
66827;DHT22;53727;45.242;19.796;2022-10-22T15:19:37;640.20;1433.60
66827;DHT22;53727;45.242;19.796;2022-10-22T15:22:03;640.10;1408.00
66827;DHT22;53727;45.242;19.796;2022-10-22T15:24:30;640.10;1433.60
66827;DHT22;53727;45.242;19.796;2022-10-22T15:26:56;640.00;1433.60
66827;DHT22;53727;45.242;19.796;2022-10-22T15:29:22;615.20;1433.60
66827;DHT22;53727;45.242;19.796;2022-10-22T15:31:53;615.10;1484.80
66827;DHT22;53727;45.242;19.796;2022-10-22T15:34:23;615.00;1510.40
66827;DHT22;53727;45.242;19.796;2022-10-22T15:36:49;615.00;1510.40
66827;DHT22;53727;45.242;19.796;2022-10-22T15:39:15;615.00;1561.60
66827;DHT22;53727;45.242;19.796;2022-10-22T15:41:41;614.90;1561.60
66827;DHT22;53727;45.242;19.796;2022-10-22T15:44:13;614.70;1612.80
66827;DHT22;53727;45.242;19.796;2022-10-22T15:46:39;614.70;1612.80
66827;DHT22;53727;45.242;19.796;2022-10-22T15:49:05;614.50;1612.80
66827;DHT22;53727;45.242;19.796;2022-10-22T15:51:31;614.50;1612.80
66827;DHT22;53727;45.242;19.796;2022-10-22T15:53:57;589.70;1638.40
66827;DHT22;53727;45.242;19.796;2022-10-22T15:56:24;589.50;1689.60
66827;DHT22;53727;45.242;19.796;2022-10-22T15:58:58;589.40;1689.60
66827;DHT22;53727;45.242;19.796;2022-10-22T16:01:24;589.40;1740.80
66827;DHT22;53727;45.242;19.796;2022-10-22T16:03:51;589.40;1689.60
66827;DHT22;53727;45.242;19.796;2022-10-22T16:06:28;589.30;1689.60
66827;DHT22;53727;45.242;19.796;2022-10-22T16:08:56;589.10;1766.40
66827;DHT22;53727;45.242;19.796;2022-10-22T16:11:23;588.90;1766.40
66827;DHT22;53727;45.242;19.796;2022-10-22T16:13:55;564.10;1792.00
66827;DHT22;53727;45.242;19.796;2022-10-22T16:16:22;563.90;1766.40
66827;DHT22;53727;45.242;19.796;2022-10-22T16:18:49;563.80;1740.80
66827;DHT22;53727;45.242;19.796;2022-10-22T16:21:15;563.60;1766.40
66827;DHT22;53727;45.242;19.796;2022-10-22T16:23:41;563.50;1792.00
66827;DHT22;53727;45.242;19.796;2022-10-22T16:26:07;563.30;1843.20
66827;DHT22;53727;45.242;19.796;2022-10-22T16:28:34;563.30;1843.20
66827;DHT22;53727;45.242;19.796;2022-10-22T16:31:04;538.50;1843.20
66827;DHT22;53727;45.242;19.796;2022-10-22T16:33:31;538.40;1894.40
66827;DHT22;53727;45.242;19.796;2022-10-22T16:35:58;538.30;1894.40
66827;DHT22;53727;45.242;19.796;2022-10-22T16:38:24;538.20;1894.40
66827;DHT22;53727;45.242;19.796;2022-10-22T16:40:50;538.20;1920.00
66827;DHT22;53727;45.242;19.796;2022-10-22T16:43:16;538.20;1945.60
66827;DHT22;53727;45.242;19.796;2022-10-22T16:45:48;538.20;1971.20
66827;DHT22;53727;45.242;19.796;2022-10-22T16:48:15;538.20;2022.40
66827;DHT22;53727;45.242;19.796;2022-10-22T16:50:41;538.10;2048.00
66827;DHT22;53727;45.242;19.796;2022-10-22T16:53:07;538.20;1996.80
66827;DHT22;53727;45.242;19.796;2022-10-22T16:55:39;538.10;1996.80
66827;DHT22;53727;45.242;19.796;2022-10-22T16:58:05;538.20;2048.00
66827;DHT22;53727;45.242;19.796;2022-10-22T17:00:32;538.00;2048.00
66827;DHT22;53727;45.242;19.796;2022-10-22T17:02:58;537.90;2048.00
66827;DHT22;53727;45.242;19.796;2022-10-22T17:05:24;537.80;1971.20
66827;DHT22;53727;45.242;19.796;2022-10-22T17:07:50;537.80;1945.60
66827;DHT22;53727;45.242;19.796;2022-10-22T17:10:16;537.90;1971.20
66827;DHT22;53727;45.242;19.796;2022-10-22T17:12:44;537.80;1996.80
66827;DHT22;53727;45.242;19.796;2022-10-22T17:15:11;537.90;2022.40
66827;DHT22;53727;45.242;19.796;2022-10-22T17:17:36;537.90;2048.00
66827;DHT22;53727;45.242;19.796;2022-10-22T17:20:04;537.90;2048.00
66827;DHT22;53727;45.242;19.796;2022-10-22T17:22:30;537.90;2073.60
66827;DHT22;53727;45.242;19.796;2022-10-22T17:27:37;512.80;2022.40
66827;DHT22;53727;45.242;19.796;2022-10-22T17:30:04;512.70;2022.40
66827;DHT22;53727;45.242;19.796;2022-10-22T17:32:30;512.70;2022.40
66827;DHT22;53727;45.242;19.796;2022-10-22T17:34:59;512.60;2048.00
66827;DHT22;53727;45.242;19.796;2022-10-22T17:37:26;512.60;2048.00
66827;DHT22;53727;45.242;19.796;2022-10-22T17:39:51;512.70;1996.80
66827;DHT22;53727;45.242;19.796;2022-10-22T17:42:17;512.70;1996.80
66827;DHT22;53727;45.242;19.796;2022-10-22T17:44:43;512.70;1996.80
66827;DHT22;53727;45.242;19.796;2022-10-22T17:47:09;512.60;2022.40
66827;DHT22;53727;45.242;19.796;2022-10-22T17:49:34;512.60;2022.40
66827;DHT22;53727;45.242;19.796;2022-10-22T17:52:00;512.70;1996.80
66827;DHT22;53727;45.242;19.796;2022-10-22T17:54:26;512.80;2048.00
66827;DHT22;53727;45.242;19.796;2022-10-22T17:56:51;512.90;1996.80
66827;DHT22;53727;45.242;19.796;2022-10-22T17:59:17;537.70;2124.80
66827;DHT22;53727;45.242;19.796;2022-10-22T18:01:44;538.00;2099.20
66827;DHT22;53727;45.242;19.796;2022-10-22T18:04:16;538.20;2201.60
66827;DHT22;53727;45.242;19.796;2022-10-22T18:06:43;563.30;2150.40
66827;DHT22;53727;45.242;19.796;2022-10-22T18:09:16;563.20;1971.20
66827;DHT22;53727;45.242;19.796;2022-10-22T18:11:42;538.20;1945.60
66827;DHT22;53727;45.242;19.796;2022-10-22T18:14:08;537.80;1971.20
66827;DHT22;53727;45.242;19.796;2022-10-22T18:16:34;512.90;2022.40
66827;DHT22;53727;45.242;19.796;2022-10-22T18:19:00;512.70;2073.60
66827;DHT22;53727;45.242;19.796;2022-10-22T18:21:27;512.50;2176.00
66827;DHT22;53727;45.242;19.796;2022-10-22T18:23:54;512.40;2252.80
66827;DHT22;53727;45.242;19.796;2022-10-22T18:26:21;512.20;2329.60
66827;DHT22;53727;45.242;19.796;2022-10-22T18:28:47;512.10;2380.80
66827;DHT22;53727;45.242;19.796;2022-10-22T18:31:18;487.30;2380.80
66827;DHT22;53727;45.242;19.796;2022-10-22T18:33:45;487.30;2380.80
66827;DHT22;53727;45.242;19.796;2022-10-22T18:36:14;487.20;2380.80
66827;DHT22;53727;45.242;19.796;2022-10-22T18:38:40;487.20;2380.80
66827;DHT22;53727;45.242;19.796;2022-10-22T18:41:08;487.20;2380.80
66827;DHT22;53727;45.242;19.796;2022-10-22T18:43:35;487.20;2380.80
66827;DHT22;53727;45.242;19.796;2022-10-22T18:46:01;487.30;2380.80
66827;DHT22;53727;45.242;19.796;2022-10-22T18:48:30;487.20;2380.80
66827;DHT22;53727;45.242;19.796;2022-10-22T18:51:01;487.00;2380.80
66827;DHT22;53727;45.242;19.796;2022-10-22T18:53:27;487.00;2380.80
66827;DHT22;53727;45.242;19.796;2022-10-22T18:55:53;487.00;2380.80
66827;DHT22;53727;45.242;19.796;2022-10-22T18:58:19;487.00;2380.80
66827;DHT22;53727;45.242;19.796;2022-10-22T19:00:45;487.00;2380.80
66827;DHT22;53727;45.242;19.796;2022-10-22T19:03:12;486.90;2380.80
66827;DHT22;53727;45.242;19.796;2022-10-22T19:05:49;486.70;2380.80
66827;DHT22;53727;45.242;19.796;2022-10-22T19:08:16;486.60;2380.80
66827;DHT22;53727;45.242;19.796;2022-10-22T19:10:44;486.50;2380.80
66827;DHT22;53727;45.242;19.796;2022-10-22T19:13:11;486.50;2380.80
66827;DHT22;53727;45.242;19.796;2022-10-22T19:15:37;461.70;2380.80
66827;DHT22;53727;45.242;19.796;2022-10-22T19:18:03;461.60;2380.80
66827;DHT22;53727;45.242;19.796;2022-10-22T19:20:29;461.60;2380.80
66827;DHT22;53727;45.242;19.796;2022-10-22T19:22:55;461.50;2380.80
66827;DHT22;53727;45.242;19.796;2022-10-22T19:25:21;461.40;2380.80
66827;DHT22;53727;45.242;19.796;2022-10-22T19:27:47;461.30;2380.80
66827;DHT22;53727;45.242;19.796;2022-10-22T19:30:14;461.10;2380.80
66827;DHT22;53727;45.242;19.796;2022-10-22T19:32:40;461.10;2380.80
66827;DHT22;53727;45.242;19.796;2022-10-22T19:35:06;461.10;2380.80
66827;DHT22;53727;45.242;19.796;2022-10-22T19:37:33;461.00;2380.80
66827;DHT22;53727;45.242;19.796;2022-10-22T19:39:59;460.90;2380.80
66827;DHT22;53727;45.242;19.796;2022-10-22T19:42:25;460.80;2380.80
66827;DHT22;53727;45.242;19.796;2022-10-22T19:44:51;460.80;2380.80
66827;DHT22;53727;45.242;19.796;2022-10-22T19:47:17;436.10;2355.20
66827;DHT22;53727;45.242;19.796;2022-10-22T19:49:42;460.80;2380.80
66827;DHT22;53727;45.242;19.796;2022-10-22T19:52:08;436.10;2355.20
66827;DHT22;53727;45.242;19.796;2022-10-22T19:54:34;436.10;2355.20
66827;DHT22;53727;45.242;19.796;2022-10-22T19:57:05;436.00;2355.20
66827;DHT22;53727;45.242;19.796;2022-10-22T19:59:31;436.10;2355.20
66827;DHT22;53727;45.242;19.796;2022-10-22T20:01:58;436.00;2355.20
66827;DHT22;53727;45.242;19.796;2022-10-22T20:04:23;435.80;2355.20
66827;DHT22;53727;45.242;19.796;2022-10-22T20:06:55;436.00;2355.20
66827;DHT22;53727;45.242;19.796;2022-10-22T20:09:20;436.10;2355.20
66827;DHT22;53727;45.242;19.796;2022-10-22T20:11:46;435.70;2355.20
66827;DHT22;53727;45.242;19.796;2022-10-22T20:14:12;435.40;2355.20
66827;DHT22;53727;45.242;19.796;2022-10-22T20:16:39;435.30;2355.20
66827;DHT22;53727;45.242;19.796;2022-10-22T20:19:05;435.20;2355.20
66827;DHT22;53727;45.242;19.796;2022-10-22T20:21:33;435.30;2355.20
66827;DHT22;53727;45.242;19.796;2022-10-22T20:23:59;435.30;2355.20
66827;DHT22;53727;45.242;19.796;2022-10-22T20:26:25;435.30;2355.20
66827;DHT22;53727;45.242;19.796;2022-10-22T20:28:53;435.50;2355.20
66827;DHT22;53727;45.242;19.796;2022-10-22T20:31:21;436.00;2355.20
66827;DHT22;53727;45.242;19.796;2022-10-22T20:33:47;436.00;2355.20
66827;DHT22;53727;45.242;19.796;2022-10-22T20:36:18;461.00;2380.80
66827;DHT22;53727;45.242;19.796;2022-10-22T20:38:45;460.80;2380.80
66827;DHT22;53727;45.242;19.796;2022-10-22T20:41:15;460.80;2380.80
66827;DHT22;53727;45.242;19.796;2022-10-22T20:43:43;436.10;2355.20
66827;DHT22;53727;45.242;19.796;2022-10-22T20:46:36;436.10;2355.20
66827;DHT22;53727;45.242;19.796;2022-10-22T20:49:08;436.10;2355.20
66827;DHT22;53727;45.242;19.796;2022-10-22T20:51:35;460.80;2380.80
66827;DHT22;53727;45.242;19.796;2022-10-22T20:54:01;461.10;2380.80
66827;DHT22;53727;45.242;19.796;2022-10-22T20:56:27;461.10;2380.80
66827;DHT22;53727;45.242;19.796;2022-10-22T20:58:53;436.10;2355.20
66827;DHT22;53727;45.242;19.796;2022-10-22T21:01:37;435.80;2355.20
66827;DHT22;53727;45.242;19.796;2022-10-22T21:04:04;435.70;2355.20
66827;DHT22;53727;45.242;19.796;2022-10-22T21:06:30;435.60;2355.20
66827;DHT22;53727;45.242;19.796;2022-10-22T21:08:56;435.40;2355.20
66827;DHT22;53727;45.242;19.796;2022-10-22T21:11:22;435.20;2355.20
66827;DHT22;53727;45.242;19.796;2022-10-22T21:13:48;410.40;2355.20
66827;DHT22;53727;45.242;19.796;2022-10-22T21:16:16;410.40;2355.20
66827;DHT22;53727;45.242;19.796;2022-10-22T21:18:43;410.10;2355.20
66827;DHT22;53727;45.242;19.796;2022-10-22T21:21:09;410.00;2355.20
66827;DHT22;53727;45.242;19.796;2022-10-22T21:23:37;409.80;2355.20
66827;DHT22;53727;45.242;19.796;2022-10-22T21:26:03;409.80;2355.20
66827;DHT22;53727;45.242;19.796;2022-10-22T21:28:34;409.70;2355.20
66827;DHT22;53727;45.242;19.796;2022-10-22T21:31:01;409.60;2355.20
66827;DHT22;53727;45.242;19.796;2022-10-22T21:33:27;384.90;2329.60
66827;DHT22;53727;45.242;19.796;2022-10-22T21:35:54;384.80;2329.60
66827;DHT22;53727;45.242;19.796;2022-10-22T21:38:21;384.90;2329.60
66827;DHT22;53727;45.242;19.796;2022-10-22T21:40:48;384.90;2329.60
66827;DHT22;53727;45.242;19.796;2022-10-22T21:43:14;409.60;2355.20
66827;DHT22;53727;45.242;19.796;2022-10-22T21:45:40;409.60;2355.20
66827;DHT22;53727;45.242;19.796;2022-10-22T21:48:06;409.60;2355.20
66827;DHT22;53727;45.242;19.796;2022-10-22T21:50:32;384.80;2329.60
66827;DHT22;53727;45.242;19.796;2022-10-22T21:52:58;384.80;2329.60
66827;DHT22;53727;45.242;19.796;2022-10-22T21:55:24;384.80;2329.60
66827;DHT22;53727;45.242;19.796;2022-10-22T21:57:50;384.70;2329.60
66827;DHT22;53727;45.242;19.796;2022-10-22T22:00:19;384.60;2329.60
66827;DHT22;53727;45.242;19.796;2022-10-22T22:02:46;384.60;2329.60
66827;DHT22;53727;45.242;19.796;2022-10-22T22:05:12;384.70;2329.60
66827;DHT22;53727;45.242;19.796;2022-10-22T22:07:38;409.60;2355.20
66827;DHT22;53727;45.242;19.796;2022-10-22T22:10:05;384.90;2329.60
66827;DHT22;53727;45.242;19.796;2022-10-22T22:12:30;384.80;2329.60
66827;DHT22;53727;45.242;19.796;2022-10-22T22:14:56;384.90;2329.60
66827;DHT22;53727;45.242;19.796;2022-10-22T22:17:22;384.80;2329.60
66827;DHT22;53727;45.242;19.796;2022-10-22T22:19:52;384.90;2329.60
66827;DHT22;53727;45.242;19.796;2022-10-22T22:22:19;384.90;2329.60
66827;DHT22;53727;45.242;19.796;2022-10-22T22:24:44;384.80;2329.60
66827;DHT22;53727;45.242;19.796;2022-10-22T22:27:10;384.80;2329.60
66827;DHT22;53727;45.242;19.796;2022-10-22T22:29:38;384.80;2329.60
66827;DHT22;53727;45.242;19.796;2022-10-22T22:32:03;384.80;2329.60
66827;DHT22;53727;45.242;19.796;2022-10-22T22:34:29;384.80;2329.60
66827;DHT22;53727;45.242;19.796;2022-10-22T22:36:55;384.90;2329.60
66827;DHT22;53727;45.242;19.796;2022-10-22T22:39:21;384.80;2329.60
66827;DHT22;53727;45.242;19.796;2022-10-22T22:41:48;384.60;2329.60
66827;DHT22;53727;45.242;19.796;2022-10-22T22:44:14;384.60;2329.60
66827;DHT22;53727;45.242;19.796;2022-10-22T22:46:40;384.60;2329.60
66827;DHT22;53727;45.242;19.796;2022-10-22T22:49:07;384.50;2329.60
66827;DHT22;53727;45.242;19.796;2022-10-22T22:51:33;384.50;2329.60
66827;DHT22;53727;45.242;19.796;2022-10-22T22:53:59;384.50;2329.60
66827;DHT22;53727;45.242;19.796;2022-10-22T22:56:27;384.40;2329.60
66827;DHT22;53727;45.242;19.796;2022-10-22T22:58:54;384.50;2329.60
66827;DHT22;53727;45.242;19.796;2022-10-22T23:01:25;384.50;2329.60
66827;DHT22;53727;45.242;19.796;2022-10-22T23:03:57;384.50;2329.60
66827;DHT22;53727;45.242;19.796;2022-10-22T23:06:24;384.60;2329.60
66827;DHT22;53727;45.242;19.796;2022-10-22T23:08:51;384.60;2329.60
66827;DHT22;53727;45.242;19.796;2022-10-22T23:11:18;384.60;2329.60
66827;DHT22;53727;45.242;19.796;2022-10-22T23:13:45;384.50;2329.60
66827;DHT22;53727;45.242;19.796;2022-10-22T23:16:19;384.60;2329.60
66827;DHT22;53727;45.242;19.796;2022-10-22T23:18:46;384.50;2329.60
66827;DHT22;53727;45.242;19.796;2022-10-22T23:21:15;384.40;2329.60
66827;DHT22;53727;45.242;19.796;2022-10-22T23:23:45;384.50;2329.60
66827;DHT22;53727;45.242;19.796;2022-10-22T23:26:17;384.50;2329.60
66827;DHT22;53727;45.242;19.796;2022-10-22T23:28:44;384.60;2329.60
66827;DHT22;53727;45.242;19.796;2022-10-22T23:31:11;384.60;2329.60
66827;DHT22;53727;45.242;19.796;2022-10-22T23:33:38;384.70;2329.60
66827;DHT22;53727;45.242;19.796;2022-10-22T23:36:04;384.80;2329.60
66827;DHT22;53727;45.242;19.796;2022-10-22T23:38:32;384.80;2329.60
66827;DHT22;53727;45.242;19.796;2022-10-22T23:40:58;384.80;2329.60
66827;DHT22;53727;45.242;19.796;2022-10-22T23:43:25;384.80;2329.60
66827;DHT22;53727;45.242;19.796;2022-10-22T23:45:52;384.80;2329.60
66827;DHT22;53727;45.242;19.796;2022-10-22T23:48:18;384.80;2329.60
66827;DHT22;53727;45.242;19.796;2022-10-22T23:50:44;384.80;2329.60
66827;DHT22;53727;45.242;19.796;2022-10-22T23:53:10;384.80;2329.60
66827;DHT22;53727;45.242;19.796;2022-10-22T23:55:37;384.70;2329.60
66827;DHT22;53727;45.242;19.796;2022-10-22T23:58:03;384.70;2329.60
